Wetterdaten: Woche 08.08.16 - 14.08.16 (KW32)
Datum Zeit Temp. A. Feuchte A. Luftdruck Regen Wind Richtung Taupunkt Windchill Windben
08.08.2016 00:00 18,5 C 68 % 1023,2 hPa 0,0 l/m 0,0 km/h N 12,5 C 18,5 C 1,2 km/h
08.08.2016 01:00 18,1 C 69 % 1023,1 hPa 0,0 l/m 0,1 km/h N 12,3 C 18,1 C 2,8 km/h
08.08.2016 02:00 17,5 C 71 % 1022,7 hPa 0,0 l/m 0,0 km/h N 12,1 C 17,5 C 1,6 km/h
08.08.2016 03:00 16,3 C 75 % 1022,6 hPa 0,0 l/m 0,0 km/h N 11,8 C 16,3 C 0,0 km/h
08.08.2016 04:00 14,8 C 78 % 1022,3 hPa 0,0 l/m 0,0 km/h N 11,0 C 14,8 C 0,0 km/h
08.08.2016 05:00 13,7 C 81 % 1022,3 hPa 0,0 l/m 0,0 km/h N 10,5 C 13,7 C 0,0 km/h
08.08.2016 06:00 13,4 C 82 % 1022,4 hPa 0,0 l/m 0,0 km/h N 10,4 C 13,4 C 0,4 km/h
08.08.2016 07:00 14,8 C 82 % 1022,3 hPa 0,0 l/m 0,0 km/h N 11,8 C 14,8 C 0,0 km/h
08.08.2016 08:00 18,0 C 81 % 1022,0 hPa 0,0 l/m 0,0 km/h N 14,5 C 18,0 C 0,8 km/h
08.08.2016 09:00 22,7 C 66 % 1021,5 hPa 0,0 l/m 0,0 km/h N 15,9 C 22,7 C 2,0 km/h
08.08.2016 10:00 25,5 C 54 % 1021,0 hPa 0,0 l/m 0,3 km/h N 15,3 C 25,5 C 4,8 km/h
08.08.2016 11:00 26,3 C 53 % 1020,7 hPa 0,0 l/m 0,7 km/h N 15,8 C 26,3 C 6,4 km/h
08.08.2016 12:00 27,5 C 49 % 1020,0 hPa 0,0 l/m 0,9 km/h N 15,8 C 27,5 C 8,0 km/h
08.08.2016 13:00 28,7 C 47 % 1019,5 hPa 0,0 l/m 1,0 km/h N 16,2 C 28,7 C 7,6 km/h
08.08.2016 14:00 29,2 C 44 % 1019,1 hPa 0,0 l/m 1,4 km/h N 15,7 C 29,2 C 7,2 km/h
08.08.2016 15:00 28,4 C 43 % 1018,5 hPa 0,0 l/m 1,4 km/h N 14,5 C 28,4 C 9,6 km/h
08.08.2016 16:00 27,5 C 43 % 1017,9 hPa 0,0 l/m 1,6 km/h N 13,9 C 27,5 C 8,8 km/h
08.08.2016 17:00 27,2 C 47 % 1017,5 hPa 0,0 l/m 0,6 km/h N 14,8 C 27,2 C 4,8 km/h
08.08.2016 18:00 26,8 C 48 % 1017,0 hPa 0,0 l/m 0,9 km/h N 14,8 C 26,8 C 7,2 km/h
08.08.2016 19:00 26,3 C 46 % 1016,9 hPa 0,0 l/m 0,4 km/h N 13,8 C 26,3 C 4,8 km/h
08.08.2016 20:00 24,9 C 49 % 1016,9 hPa 0,0 l/m 0,0 km/h N 13,5 C 24,9 C 0,8 km/h
08.08.2016 21:00 22,0 C 60 % 1017,0 hPa 0,0 l/m 0,0 km/h N 13,7 C 22,0 C 0,0 km/h
08.08.2016 22:00 19,2 C 69 % 1016,9 hPa 0,0 l/m 0,0 km/h N 13,4 C 19,2 C 0,0 km/h
08.08.2016 23:00 17,6 C 76 % 1016,9 hPa 0,0 l/m 0,0 km/h N 13,2 C 17,6 C 0,4 km/h
09.08.2016 00:00 16,7 C 78 % 1016,9 hPa 0,0 l/m 0,0 km/h N 12,8 C 16,7 C 0,4 km/h
09.08.2016 01:00 16,4 C 80 % 1016,6 hPa 0,0 l/m 0,2 km/h N 12,9 C 16,4 C 2,8 km/h
09.08.2016 02:00 16,6 C 79 % 1016,4 hPa 0,0 l/m 0,1 km/h N 12,9 C 16,6 C 2,0 km/h
09.08.2016 03:00 16,2 C 80 % 1016,2 hPa 0,0 l/m 0,0 km/h N 12,6 C 16,2 C 1,2 km/h
09.08.2016 04:00 15,6 C 81 % 1016,0 hPa 0,0 l/m 0,0 km/h N 12,3 C 15,6 C 0,0 km/h
09.08.2016 05:00 14,7 C 82 % 1015,9 hPa 0,0 l/m 0,0 km/h N 11,5 C 14,7 C 0,4 km/h
09.08.2016 06:00 14,5 C 82 % 1016,1 hPa 0,0 l/m 0,0 km/h N 11,4 C 14,5 C 0,0 km/h
09.08.2016 07:00 15,7 C 82 % 1016,2 hPa 0,0 l/m 0,0 km/h N 12,7 C 15,7 C 0,4 km/h
09.08.2016 08:00 18,4 C 82 % 1016,1 hPa 0,0 l/m 0,0 km/h N 15,2 C 18,4 C 1,6 km/h
09.08.2016 09:00 23,1 C 73 % 1015,8 hPa 0,0 l/m 0,1 km/h N 17,9 C 23,1 C 2,0 km/h
09.08.2016 10:00 26,3 C 62 % 1015,4 hPa 0,0 l/m 0,4 km/h N 18,3 C 26,3 C 4,0 km/h
09.08.2016 11:00 26,9 C 58 % 1015,3 hPa 0,0 l/m 2,2 km/h N 17,9 C 26,9 C 11,3 km/h
09.08.2016 12:00 27,0 C 56 % 1014,6 hPa 0,0 l/m 3,3 km/h N 17,4 C 27,0 C 12,5 km/h
09.08.2016 13:00 25,7 C 59 % 1014,4 hPa 0,0 l/m 10,3 km/h N 17,0 C 24,9 C 25,8 km/h
09.08.2016 14:00 22,9 C 66 % 1015,5 hPa 0,0 l/m 12,8 km/h N 16,1 C 21,3 C 31,4 km/h
09.08.2016 15:00 21,7 C 66 % 1016,5 hPa 0,0 l/m 7,5 km/h N 15,1 C 21,3 C 21,7 km/h
09.08.2016 16:00 19,9 C 74 % 1017,3 hPa 0,0 l/m 3,3 km/h N 15,2 C 19,9 C 16,9 km/h
09.08.2016 17:00 18,0 C 81 % 1017,0 hPa 0,8 l/m 3,9 km/h N 14,7 C 18,0 C 15,3 km/h
09.08.2016 18:00 17,7 C 82 % 1016,5 hPa 0,8 l/m 4,5 km/h N 14,6 C 17,6 C 16,5 km/h
09.08.2016 19:00 17,4 C 82 % 1016,2 hPa 0,5 l/m 0,4 km/h N 14,3 C 17,4 C 4,8 km/h
09.08.2016 20:00 17,0 C 82 % 1016,3 hPa 0,5 l/m 0,0 km/h N 13,9 C 17,0 C 0,8 km/h
09.08.2016 21:00 16,7 C 82 % 1016,1 hPa 0,8 l/m 0,1 km/h N 13,6 C 16,7 C 2,8 km/h
09.08.2016 22:00 16,6 C 82 % 1015,9 hPa 0,3 l/m 0,3 km/h N 13,5 C 16,6 C 4,0 km/h
09.08.2016 23:00 16,9 C 82 % 1016,1 hPa 0,5 l/m 2,9 km/h N 13,8 C 16,9 C 10,9 km/h
10.08.2016 00:00 16,8 C 82 % 1015,9 hPa 0,3 l/m 4,8 km/h N 13,7 C 16,8 C 14,9 km/h
10.08.2016 01:00 16,5 C 82 % 1016,0 hPa 0,5 l/m 4,4 km/h N 13,4 C 16,5 C 14,9 km/h
10.08.2016 02:00 15,7 C 82 % 1016,3 hPa 0,5 l/m 4,8 km/h N 12,6 C 15,7 C 16,9 km/h
10.08.2016 03:00 14,9 C 82 % 1016,7 hPa 0,3 l/m 4,7 km/h N 11,9 C 14,8 C 18,1 km/h
10.08.2016 04:00 13,8 C 83 % 1016,7 hPa 0,3 l/m 6,0 km/h N 11,0 C 13,7 C 17,3 km/h
10.08.2016 05:00 13,5 C 83 % 1016,3 hPa 0,5 l/m 4,4 km/h N 10,7 C 13,5 C 15,7 km/h
10.08.2016 06:00 13,4 C 83 % 1016,3 hPa 0,0 l/m 4,4 km/h N 10,5 C 13,3 C 13,3 km/h
10.08.2016 07:00 13,4 C 83 % 1016,4 hPa 0,5 l/m 3,6 km/h N 10,6 C 13,4 C 11,7 km/h
10.08.2016 08:00 13,5 C 83 % 1016,8 hPa 0,3 l/m 1,0 km/h N 10,6 C 13,5 C 7,2 km/h
10.08.2016 09:00 13,7 C 83 % 1016,8 hPa 0,3 l/m 2,1 km/h N 10,8 C 13,7 C 10,5 km/h
10.08.2016 10:00 13,8 C 83 % 1016,9 hPa 0,6 l/m 3,1 km/h N 10,9 C 13,8 C 11,7 km/h
10.08.2016 11:00 13,8 C 83 % 1016,9 hPa 0,6 l/m 3,3 km/h N 10,9 C 13,8 C 12,9 km/h
10.08.2016 12:00 13,7 C 83 % 1016,9 hPa 0,9 l/m 3,6 km/h N 10,9 C 13,7 C 14,9 km/h
10.08.2016 13:00 13,9 C 83 % 1016,8 hPa 1,2 l/m 4,8 km/h N 11,1 C 13,9 C 18,9 km/h
10.08.2016 14:00 14,1 C 83 % 1016,9 hPa 1,2 l/m 5,1 km/h N 11,2 C 14,1 C 16,5 km/h
10.08.2016 15:00 14,3 C 83 % 1016,5 hPa 1,2 l/m 2,8 km/h N 11,5 C 14,3 C 11,7 km/h
10.08.2016 16:00 14,6 C 83 % 1016,5 hPa 0,9 l/m 5,3 km/h N 11,8 C 14,6 C 18,1 km/h
10.08.2016 17:00 15,2 C 81 % 1016,4 hPa 0,3 l/m 7,6 km/h N 11,9 C 14,4 C 20,1 km/h
10.08.2016 18:00 15,1 C 80 % 1016,4 hPa 0,3 l/m 5,0 km/h N 11,7 C 15,1 C 16,5 km/h
10.08.2016 19:00 15,3 C 79 % 1016,5 hPa 0,3 l/m 8,3 km/h N 11,6 C 14,3 C 21,7 km/h
10.08.2016 20:00 15,0 C 78 % 1016,9 hPa 0,3 l/m 8,2 km/h N 11,1 C 14,0 C 20,1 km/h
10.08.2016 21:00 14,7 C 80 % 1017,4 hPa 0,3 l/m 10,8 km/h N 11,3 C 12,5 C 26,1 km/h
10.08.2016 22:00 13,9 C 78 % 1017,9 hPa 0,0 l/m 13,9 km/h N 10,2 C 10,3 C 34,6 km/h
10.08.2016 23:00 13,3 C 79 % 1018,6 hPa 0,5 l/m 15,6 km/h N 9,6 C 8,9 C 31,0 km/h
11.08.2016 00:00 12,8 C 80 % 1019,2 hPa 0,0 l/m 11,1 km/h N 9,4 C 10,2 C 23,7 km/h
11.08.2016 01:00 12,4 C 81 % 1019,4 hPa 0,5 l/m 8,8 km/h N 9,2 C 10,9 C 21,7 km/h
11.08.2016 02:00 12,1 C 80 % 1019,7 hPa 0,0 l/m 7,8 km/h N 8,8 C 11,1 C 18,9 km/h
11.08.2016 03:00 11,8 C 82 % 1020,0 hPa 0,3 l/m 3,9 km/h N 8,7 C 11,8 C 14,9 km/h
11.08.2016 04:00 11,8 C 81 % 1020,5 hPa 0,3 l/m 5,7 km/h N 8,7 C 11,8 C 20,5 km/h
11.08.2016 05:00 11,7 C 81 % 1020,9 hPa 0,0 l/m 5,7 km/h N 8,5 C 11,6 C 17,7 km/h
11.08.2016 06:00 11,8 C 80 % 1021,1 hPa 0,0 l/m 5,1 km/h N 8,4 C 11,8 C 16,9 km/h
11.08.2016 07:00 12,1 C 79 % 1021,5 hPa 0,0 l/m 7,5 km/h N 8,6 C 11,2 C 22,1 km/h
11.08.2016 08:00 12,8 C 77 % 1022,0 hPa 0,0 l/m 7,0 km/h N 8,7 C 12,4 C 18,9 km/h
11.08.2016 09:00 13,3 C 74 % 1022,2 hPa 0,0 l/m 7,2 km/h N 8,8 C 12,8 C 21,7 km/h
11.08.2016 10:00 14,7 C 70 % 1022,4 hPa 0,0 l/m 7,2 km/h N 9,2 C 14,3 C 23,3 km/h
11.08.2016 11:00 15,4 C 64 % 1022,4 hPa 0,0 l/m 8,0 km/h N 8,6 C 14,5 C 23,3 km/h
11.08.2016 12:00 16,8 C 62 % 1022,1 hPa 0,0 l/m 8,0 km/h N 9,3 C 15,9 C 23,3 km/h
11.08.2016 13:00 17,4 C 55 % 1021,9 hPa 0,0 l/m 8,0 km/h N 8,1 C 16,6 C 22,5 km/h
11.08.2016 14:00 17,7 C 55 % 1021,8 hPa 0,0 l/m 7,3 km/h N 8,5 C 17,0 C 21,7 km/h
11.08.2016 15:00 18,4 C 51 % 1021,5 hPa 0,0 l/m 7,2 km/h N 8,1 C 18,0 C 25,0 km/h
11.08.2016 16:00 18,3 C 49 % 1021,3 hPa 0,0 l/m 5,6 km/h N 7,4 C 18,4 C 20,9 km/h
11.08.2016 17:00 18,0 C 52 % 1021,6 hPa 0,0 l/m 5,6 km/h N 7,8 C 18,0 C 20,1 km/h
11.08.2016 18:00 17,1 C 58 % 1021,7 hPa 0,0 l/m 5,6 km/h N 8,6 C 17,1 C 20,9 km/h
11.08.2016 19:00 16,6 C 59 % 1021,8 hPa 0,0 l/m 4,0 km/h N 8,4 C 16,6 C 15,3 km/h
11.08.2016 20:00 15,3 C 63 % 1022,0 hPa 0,0 l/m 0,0 km/h N 8,2 C 15,3 C 1,6 km/h
11.08.2016 21:00 14,1 C 66 % 1022,5 hPa 0,0 l/m 0,0 km/h N 7,9 C 14,1 C 2,4 km/h
11.08.2016 22:00 13,7 C 71 % 1022,8 hPa 0,0 l/m 1,6 km/h N 8,4 C 13,7 C 10,5 km/h
11.08.2016 23:00 14,5 C 68 % 1022,8 hPa 0,0 l/m 0,8 km/h N 8,6 C 14,5 C 9,6 km/h
12.08.2016 00:00 12,8 C 73 % 1023,0 hPa 0,0 l/m 0,0 km/h N 7,9 C 12,8 C 0,0 km/h
12.08.2016 01:00 11,5 C 77 % 1023,0 hPa 0,0 l/m 0,0 km/h N 7,6 C 11,5 C 0,0 km/h
12.08.2016 02:00 10,8 C 79 % 1022,9 hPa 0,0 l/m 0,0 km/h N 7,3 C 10,8 C 0,0 km/h
12.08.2016 03:00 11,0 C 80 % 1022,9 hPa 0,0 l/m 0,0 km/h N 7,6 C 11,0 C 2,4 km/h
12.08.2016 04:00 10,9 C 79 % 1023,0 hPa 0,0 l/m 0,0 km/h N 7,5 C 10,9 C 1,6 km/h
12.08.2016 05:00 10,7 C 79 % 1023,2 hPa 0,0 l/m 0,0 km/h N 7,2 C 10,7 C 1,6 km/h
12.08.2016 06:00 10,1 C 80 % 1023,4 hPa 0,0 l/m 0,0 km/h N 6,8 C 10,1 C 0,0 km/h
12.08.2016 07:00 11,2 C 82 % 1023,8 hPa 0,0 l/m 0,0 km/h N 8,2 C 11,2 C 0,0 km/h
12.08.2016 08:00 12,5 C 81 % 1024,2 hPa 0,0 l/m 0,0 km/h N 9,4 C 12,5 C 0,0 km/h
12.08.2016 09:00 14,9 C 75 % 1024,4 hPa 0,0 l/m 1,3 km/h N 10,5 C 14,9 C 8,9 km/h
12.08.2016 10:00 16,4 C 67 % 1024,4 hPa 0,0 l/m 1,1 km/h N 10,3 C 16,4 C 8,9 km/h
12.08.2016 11:00 17,2 C 64 % 1024,6 hPa 0,0 l/m 4,2 km/h N 10,2 C 17,2 C 17,7 km/h
12.08.2016 12:00 17,3 C 64 % 1024,4 hPa 0,0 l/m 6,2 km/h N 10,4 C 16,9 C 22,1 km/h
12.08.2016 13:00 17,7 C 65 % 1024,3 hPa 0,0 l/m 8,4 km/h N 10,9 C 16,8 C 24,9 km/h
12.08.2016 14:00 17,9 C 67 % 1024,2 hPa 0,0 l/m 7,6 km/h N 11,5 C 17,0 C 28,6 km/h
12.08.2016 15:00 17,9 C 69 % 1024,2 hPa 0,0 l/m 5,7 km/h N 12,1 C 17,5 C 22,1 km/h
12.08.2016 16:00 17,7 C 70 % 1024,4 hPa 0,0 l/m 9,9 km/h N 12,0 C 16,1 C 29,0 km/h
12.08.2016 17:00 17,8 C 69 % 1024,3 hPa 0,0 l/m 7,8 km/h N 12,1 C 17,1 C 25,7 km/h
12.08.2016 18:00 17,3 C 72 % 1024,3 hPa 0,0 l/m 7,8 km/h N 12,1 C 16,6 C 22,1 km/h
12.08.2016 19:00 16,9 C 74 % 1024,5 hPa 0,0 l/m 8,9 km/h N 12,2 C 15,6 C 25,3 km/h
12.08.2016 20:00 16,5 C 77 % 1024,7 hPa 0,0 l/m 9,0 km/h N 12,3 C 15,2 C 24,9 km/h
12.08.2016 21:00 16,3 C 78 % 1025,1 hPa 0,0 l/m 7,7 km/h N 12,4 C 15,5 C 20,9 km/h
12.08.2016 22:00 16,3 C 79 % 1025,4 hPa 0,0 l/m 2,4 km/h N 12,6 C 16,3 C 14,1 km/h
12.08.2016 23:00 16,5 C 79 % 1025,3 hPa 0,0 l/m 2,4 km/h N 12,8 C 16,5 C 9,6 km/h
13.08.2016 00:00 16,5 C 79 % 1025,1 hPa 0,0 l/m 3,2 km/h N 12,8 C 16,5 C 11,7 km/h
13.08.2016 01:00 16,5 C 79 % 1024,8 hPa 0,0 l/m 1,4 km/h N 12,9 C 16,5 C 7,2 km/h
13.08.2016 02:00 16,4 C 80 % 1024,6 hPa 0,0 l/m 0,1 km/h N 12,9 C 16,4 C 1,6 km/h
13.08.2016 03:00 16,0 C 81 % 1024,6 hPa 0,0 l/m 0,0 km/h N 12,7 C 16,0 C 1,2 km/h
13.08.2016 04:00 16,2 C 82 % 1024,3 hPa 0,0 l/m 0,0 km/h N 13,1 C 16,2 C 1,2 km/h
13.08.2016 05:00 16,2 C 82 % 1024,3 hPa 0,0 l/m 0,0 km/h N 13,1 C 16,2 C 0,4 km/h
13.08.2016 06:00 16,2 C 82 % 1024,4 hPa 0,0 l/m 0,0 km/h N 13,1 C 16,2 C 0,8 km/h
13.08.2016 07:00 16,8 C 82 % 1024,6 hPa 0,0 l/m 0,0 km/h N 13,7 C 16,8 C 0,4 km/h
13.08.2016 08:00 17,5 C 82 % 1024,7 hPa 0,0 l/m 0,4 km/h N 14,4 C 17,5 C 4,4 km/h
13.08.2016 09:00 18,2 C 82 % 1024,7 hPa 0,0 l/m 0,0 km/h N 15,0 C 18,2 C 1,2 km/h
13.08.2016 10:00 19,0 C 81 % 1024,6 hPa 0,0 l/m 1,2 km/h N 15,5 C 19,0 C 6,4 km/h
13.08.2016 11:00 20,1 C 77 % 1024,3 hPa 0,0 l/m 1,6 km/h N 15,9 C 20,1 C 8,8 km/h
13.08.2016 12:00 21,0 C 75 % 1023,9 hPa 0,0 l/m 2,0 km/h N 16,3 C 21,0 C 8,9 km/h
13.08.2016 13:00 22,3 C 72 % 1023,6 hPa 0,0 l/m 2,4 km/h N 16,9 C 22,3 C 8,5 km/h
13.08.2016 14:00 23,5 C 66 % 1023,3 hPa 0,0 l/m 2,2 km/h N 16,7 C 23,5 C 11,3 km/h
13.08.2016 15:00 24,2 C 65 % 1022,8 hPa 0,0 l/m 0,8 km/h N 17,0 C 24,2 C 7,2 km/h
13.08.2016 16:00 24,2 C 62 % 1022,3 hPa 0,0 l/m 0,5 km/h N 16,3 C 24,2 C 5,2 km/h
13.08.2016 17:00 24,4 C 61 % 1021,9 hPa 0,0 l/m 0,5 km/h N 16,4 C 24,4 C 5,6 km/h
13.08.2016 18:00 24,3 C 62 % 1021,8 hPa 0,0 l/m 0,2 km/h N 16,5 C 24,3 C 3,6 km/h
13.08.2016 19:00 24,1 C 63 % 1021,7 hPa 0,0 l/m 0,4 km/h N 16,6 C 24,1 C 5,2 km/h
13.08.2016 20:00 22,5 C 69 % 1021,8 hPa 0,0 l/m 0,2 km/h N 16,5 C 22,5 C 3,2 km/h
13.08.2016 21:00 20,4 C 75 % 1022,1 hPa 0,0 l/m 0,0 km/h N 15,7 C 20,4 C 0,4 km/h
13.08.2016 22:00 18,2 C 79 % 1022,1 hPa 0,0 l/m 0,0 km/h N 14,5 C 18,2 C 0,0 km/h
13.08.2016 23:00 17,0 C 82 % 1022,0 hPa 0,0 l/m 0,0 km/h N 13,8 C 17,0 C 0,8 km/h
14.08.2016 00:00 16,4 C 82 % 1021,8 hPa 0,0 l/m 0,0 km/h N 13,3 C 16,4 C 0,8 km/h
14.08.2016 01:00 16,4 C 82 % 1021,7 hPa 0,0 l/m 0,1 km/h N 13,3 C 16,4 C 1,6 km/h
14.08.2016 02:00 15,9 C 82 % 1021,6 hPa 0,0 l/m 0,0 km/h N 12,9 C 15,9 C 0,0 km/h
14.08.2016 03:00 15,6 C 82 % 1021,4 hPa 0,0 l/m 0,0 km/h N 12,5 C 15,6 C 0,0 km/h
14.08.2016 04:00 15,1 C 82 % 1021,2 hPa 0,0 l/m 0,0 km/h N 12,0 C 15,1 C 0,0 km/h
14.08.2016 05:00 14,6 C 83 % 1021,2 hPa 0,0 l/m 0,0 km/h N 11,6 C 14,6 C 0,4 km/h
14.08.2016 06:00 14,2 C 83 % 1021,3 hPa 0,0 l/m 0,0 km/h N 11,2 C 14,2 C 0,0 km/h
14.08.2016 07:00 15,1 C 82 % 1021,3 hPa 0,0 l/m 0,0 km/h N 12,1 C 15,1 C 0,0 km/h
14.08.2016 08:00 17,6 C 81 % 1021,3 hPa 0,0 l/m 0,0 km/h N 14,3 C 17,6 C 0,4 km/h
14.08.2016 09:00 21,3 C 80 % 1021,4 hPa 0,0 l/m 0,1 km/h N 17,6 C 21,3 C 2,8 km/h
14.08.2016 10:00 25,2 C 69 % 1021,1 hPa 0,0 l/m 0,2 km/h N 19,0 C 25,2 C 3,2 km/h
14.08.2016 11:00 27,3 C 62 % 1020,8 hPa 0,0 l/m 0,4 km/h N 19,4 C 27,3 C 5,6 km/h
14.08.2016 12:00 27,6 C 56 % 1020,4 hPa 0,0 l/m 0,6 km/h N 17,9 C 27,6 C 5,6 km/h
14.08.2016 13:00 28,6 C 52 % 1019,8 hPa 0,0 l/m 0,7 km/h N 17,6 C 28,6 C 5,2 km/h
14.08.2016 14:00 29,5 C 47 % 1019,4 hPa 0,0 l/m 1,2 km/h N 17,1 C 29,5 C 9,7 km/h
14.08.2016 15:00 28,5 C 49 % 1019,1 hPa 0,0 l/m 0,7 km/h N 16,7 C 28,5 C 6,0 km/h
14.08.2016 16:00 29,0 C 47 % 1018,7 hPa 0,0 l/m 0,5 km/h N 16,5 C 29,0 C 7,6 km/h
14.08.2016 17:00 28,6 C 47 % 1018,3 hPa 0,0 l/m 0,4 km/h N 16,2 C 28,6 C 6,0 km/h
14.08.2016 18:00 28,2 C 48 % 1018,1 hPa 0,0 l/m 0,3 km/h N 16,3 C 28,2 C 4,4 km/h
14.08.2016 19:00 27,4 C 55 % 1017,9 hPa 0,0 l/m 0,0 km/h N 17,5 C 27,4 C 0,8 km/h
14.08.2016 20:00 24,5 C 62 % 1018,2 hPa 0,0 l/m 0,0 km/h N 16,8 C 24,5 C 0,4 km/h
14.08.2016 21:00 21,9 C 70 % 1018,4 hPa 0,0 l/m 0,2 km/h N 16,2 C 21,9 C 3,2 km/h
14.08.2016 22:00 21,0 C 74 % 1018,4 hPa 0,0 l/m 0,0 km/h N 16,3 C 21,0 C 2,0 km/h
14.08.2016 23:00 20,4 C 76 % 1018,6 hPa 0,0 l/m 0,0 km/h N 16,0 C 20,4 C 0,0 km/h
Min-Datum _ 12.08.16 08.08.16 09.08.16 - 08.08.16 - 12.08.16 10.08.16 08.08.16
_ Min-Zeit 06:30 15:15 13:15 - 00:00 - 06:00 23:45 00:00
Minimum _ 10,0 C 41 % 1014,2 hPa - 0,0 km/h - 6,7 C 8,4 C 0,0 km/h
Max-Datum _ 14.08.16 10.08.16 12.08.16 10.08.16 09.08.16 - 14.08.16 14.08.16 10.08.16
_ Max-Zeit 14:30 03:45 22:15 13:00 14:00 - 11:15 14:30 22:15
Maximum _ 30,2 C 83 % 1025,4 hPa 1,2 l/m 16,8 km/h
N
- 19,8 C 30,1 C 40,2 km/h
N
Durchschnitt _ 18,1 C 72 % 1020,3 hPa #17,2 l/m 2,7 km/h N 12,6 C 17,9 C 9,5 km/h